sensor_id;sensor_type;location;lat;lon;timestamp;P1;durP1;ratioP1;P2;durP2;ratioP2
59416;SDS011;45222;52.458;20.914;2023-09-08T00:00:11;10.80;;;6.50;;
59416;SDS011;45222;52.458;20.914;2023-09-08T00:04:16;10.20;;;6.50;;
59416;SDS011;45222;52.458;20.914;2023-09-08T00:08:03;10.70;;;7.10;;
59416;SDS011;45222;52.458;20.914;2023-09-08T00:11:49;11.10;;;7.40;;
59416;SDS011;45222;52.458;20.914;2023-09-08T00:15:34;9.60;;;6.60;;
59416;SDS011;45222;52.458;20.914;2023-09-08T00:19:20;9.70;;;6.10;;
59416;SDS011;45222;52.458;20.914;2023-09-08T00:23:06;10.30;;;6.30;;
59416;SDS011;45222;52.458;20.914;2023-09-08T00:26:53;9.40;;;5.90;;
59416;SDS011;45222;52.458;20.914;2023-09-08T00:30:38;10.60;;;6.50;;
59416;SDS011;45222;52.458;20.914;2023-09-08T00:34:23;10.00;;;6.20;;
59416;SDS011;45222;52.458;20.914;2023-09-08T00:38:08;8.30;;;5.70;;
59416;SDS011;45222;52.458;20.914;2023-09-08T00:41:54;8.60;;;5.80;;
59416;SDS011;45222;52.458;20.914;2023-09-08T00:45:40;8.90;;;5.50;;
59416;SDS011;45222;52.458;20.914;2023-09-08T00:49:26;8.40;;;5.60;;
59416;SDS011;45222;52.458;20.914;2023-09-08T00:53:12;8.40;;;5.80;;
59416;SDS011;45222;52.458;20.914;2023-09-08T00:56:58;11.20;;;6.20;;
59416;SDS011;45222;52.458;20.914;2023-09-08T01:00:48;10.70;;;6.90;;
59416;SDS011;45222;52.458;20.914;2023-09-08T01:04:38;10.40;;;6.00;;
59416;SDS011;45222;52.458;20.914;2023-09-08T01:08:25;8.90;;;6.20;;
59416;SDS011;45222;52.458;20.914;2023-09-08T01:12:10;11.40;;;6.40;;
59416;SDS011;45222;52.458;20.914;2023-09-08T01:15:55;10.30;;;5.90;;
59416;SDS011;45222;52.458;20.914;2023-09-08T01:19:40;10.90;;;6.00;;
59416;SDS011;45222;52.458;20.914;2023-09-08T01:23:30;9.30;;;6.10;;
59416;SDS011;45222;52.458;20.914;2023-09-08T01:27:32;9.50;;;6.10;;
59416;SDS011;45222;52.458;20.914;2023-09-08T01:31:19;9.90;;;6.30;;
59416;SDS011;45222;52.458;20.914;2023-09-08T01:35:06;10.80;;;6.20;;
59416;SDS011;45222;52.458;20.914;2023-09-08T01:38:53;9.20;;;5.70;;
59416;SDS011;45222;52.458;20.914;2023-09-08T01:42:38;8.20;;;5.70;;
59416;SDS011;45222;52.458;20.914;2023-09-08T01:46:23;10.30;;;6.00;;
59416;SDS011;45222;52.458;20.914;2023-09-08T01:50:09;10.60;;;6.50;;
59416;SDS011;45222;52.458;20.914;2023-09-08T01:53:54;12.90;;;6.50;;
59416;SDS011;45222;52.458;20.914;2023-09-08T01:57:39;10.80;;;5.90;;
59416;SDS011;45222;52.458;20.914;2023-09-08T02:01:24;9.10;;;5.60;;
59416;SDS011;45222;52.458;20.914;2023-09-08T02:05:09;9.80;;;5.80;;
59416;SDS011;45222;52.458;20.914;2023-09-08T02:08:54;10.40;;;6.30;;
59416;SDS011;45222;52.458;20.914;2023-09-08T02:12:40;8.50;;;5.90;;
59416;SDS011;45222;52.458;20.914;2023-09-08T02:16:25;11.10;;;6.30;;
59416;SDS011;45222;52.458;20.914;2023-09-08T02:20:11;9.50;;;6.10;;
59416;SDS011;45222;52.458;20.914;2023-09-08T02:23:56;10.40;;;6.00;;
59416;SDS011;45222;52.458;20.914;2023-09-08T02:27:41;8.80;;;5.80;;
59416;SDS011;45222;52.458;20.914;2023-09-08T02:31:26;10.90;;;6.30;;
59416;SDS011;45222;52.458;20.914;2023-09-08T02:35:12;8.50;;;6.20;;
59416;SDS011;45222;52.458;20.914;2023-09-08T02:38:58;11.00;;;6.70;;
59416;SDS011;45222;52.458;20.914;2023-09-08T02:42:43;37.70;;;7.70;;
59416;SDS011;45222;52.458;20.914;2023-09-08T02:46:28;11.00;;;6.50;;
59416;SDS011;45222;52.458;20.914;2023-09-08T02:50:13;12.30;;;6.30;;
59416;SDS011;45222;52.458;20.914;2023-09-08T02:53:59;10.30;;;6.30;;
59416;SDS011;45222;52.458;20.914;2023-09-08T02:57:44;10.80;;;6.60;;
59416;SDS011;45222;52.458;20.914;2023-09-08T03:01:29;11.30;;;5.90;;
59416;SDS011;45222;52.458;20.914;2023-09-08T03:05:15;11.60;;;5.90;;
59416;SDS011;45222;52.458;20.914;2023-09-08T03:09:00;9.60;;;6.30;;
59416;SDS011;45222;52.458;20.914;2023-09-08T03:12:46;9.10;;;6.50;;
59416;SDS011;45222;52.458;20.914;2023-09-08T03:16:31;9.40;;;6.40;;
59416;SDS011;45222;52.458;20.914;2023-09-08T03:20:16;8.80;;;6.00;;
59416;SDS011;45222;52.458;20.914;2023-09-08T03:24:01;10.40;;;6.10;;
59416;SDS011;45222;52.458;20.914;2023-09-08T03:27:47;12.20;;;6.70;;
59416;SDS011;45222;52.458;20.914;2023-09-08T03:31:32;10.40;;;6.40;;
59416;SDS011;45222;52.458;20.914;2023-09-08T03:35:18;9.70;;;6.80;;
59416;SDS011;45222;52.458;20.914;2023-09-08T03:39:04;9.60;;;6.80;;
59416;SDS011;45222;52.458;20.914;2023-09-08T03:42:51;9.90;;;6.00;;
59416;SDS011;45222;52.458;20.914;2023-09-08T03:46:42;9.70;;;6.20;;
59416;SDS011;45222;52.458;20.914;2023-09-08T03:50:35;10.60;;;6.50;;
59416;SDS011;45222;52.458;20.914;2023-09-08T03:54:24;10.80;;;6.40;;
59416;SDS011;45222;52.458;20.914;2023-09-08T03:58:10;10.10;;;6.40;;
59416;SDS011;45222;52.458;20.914;2023-09-08T04:01:55;12.00;;;6.80;;
59416;SDS011;45222;52.458;20.914;2023-09-08T04:05:40;8.80;;;6.00;;
59416;SDS011;45222;52.458;20.914;2023-09-08T04:09:25;9.20;;;5.70;;
59416;SDS011;45222;52.458;20.914;2023-09-08T04:13:11;316.80;;;21.30;;
59416;SDS011;45222;52.458;20.914;2023-09-08T04:16:57;10.20;;;6.50;;
59416;SDS011;45222;52.458;20.914;2023-09-08T04:20:42;22.50;;;7.20;;
59416;SDS011;45222;52.458;20.914;2023-09-08T04:24:27;74.70;;;10.00;;
59416;SDS011;45222;52.458;20.914;2023-09-08T04:28:12;27.20;;;7.60;;
59416;SDS011;45222;52.458;20.914;2023-09-08T04:31:57;44.70;;;8.70;;
59416;SDS011;45222;52.458;20.914;2023-09-08T04:35:43;32.70;;;8.20;;
59416;SDS011;45222;52.458;20.914;2023-09-08T04:39:29;26.70;;;8.00;;
59416;SDS011;45222;52.458;20.914;2023-09-08T04:43:14;44.00;;;9.40;;
59416;SDS011;45222;52.458;20.914;2023-09-08T04:46:59;30.80;;;8.30;;
59416;SDS011;45222;52.458;20.914;2023-09-08T04:50:44;16.40;;;7.40;;
59416;SDS011;45222;52.458;20.914;2023-09-08T04:54:29;18.60;;;6.70;;
59416;SDS011;45222;52.458;20.914;2023-09-08T04:58:15;25.80;;;7.50;;
59416;SDS011;45222;52.458;20.914;2023-09-08T05:02:00;29.40;;;9.40;;
59416;SDS011;45222;52.458;20.914;2023-09-08T05:05:45;16.40;;;6.90;;
59416;SDS011;45222;52.458;20.914;2023-09-08T05:09:30;63.00;;;9.60;;
59416;SDS011;45222;52.458;20.914;2023-09-08T05:13:16;68.50;;;9.40;;
59416;SDS011;45222;52.458;20.914;2023-09-08T05:17:02;37.50;;;7.80;;
59416;SDS011;45222;52.458;20.914;2023-09-08T05:20:48;22.00;;;6.80;;
59416;SDS011;45222;52.458;20.914;2023-09-08T05:24:35;14.20;;;8.10;;
59416;SDS011;45222;52.458;20.914;2023-09-08T05:28:21;15.90;;;9.10;;
59416;SDS011;45222;52.458;20.914;2023-09-08T05:32:06;13.90;;;7.60;;
59416;SDS011;45222;52.458;20.914;2023-09-08T05:35:51;13.40;;;7.10;;
59416;SDS011;45222;52.458;20.914;2023-09-08T05:39:36;12.60;;;7.10;;
59416;SDS011;45222;52.458;20.914;2023-09-08T05:43:22;11.40;;;6.80;;
59416;SDS011;45222;52.458;20.914;2023-09-08T05:47:08;9.60;;;7.10;;
59416;SDS011;45222;52.458;20.914;2023-09-08T05:50:53;11.90;;;7.20;;
59416;SDS011;45222;52.458;20.914;2023-09-08T05:54:39;235.50;;;17.50;;
59416;SDS011;45222;52.458;20.914;2023-09-08T05:58:24;18.30;;;8.70;;
59416;SDS011;45222;52.458;20.914;2023-09-08T06:02:10;15.70;;;8.60;;
59416;SDS011;45222;52.458;20.914;2023-09-08T06:05:56;43.60;;;9.50;;
59416;SDS011;45222;52.458;20.914;2023-09-08T06:09:41;13.90;;;8.30;;
59416;SDS011;45222;52.458;20.914;2023-09-08T06:13:27;16.80;;;7.70;;
59416;SDS011;45222;52.458;20.914;2023-09-08T06:17:12;13.70;;;7.70;;
59416;SDS011;45222;52.458;20.914;2023-09-08T06:20:57;11.60;;;8.30;;
59416;SDS011;45222;52.458;20.914;2023-09-08T06:24:42;15.50;;;8.70;;
59416;SDS011;45222;52.458;20.914;2023-09-08T06:28:28;21.20;;;8.90;;
59416;SDS011;45222;52.458;20.914;2023-09-08T06:32:13;13.50;;;8.50;;
59416;SDS011;45222;52.458;20.914;2023-09-08T06:35:58;20.70;;;9.20;;
59416;SDS011;45222;52.458;20.914;2023-09-08T06:39:43;14.30;;;9.00;;
59416;SDS011;45222;52.458;20.914;2023-09-08T06:43:29;28.60;;;9.90;;
59416;SDS011;45222;52.458;20.914;2023-09-08T06:47:15;92.20;;;12.90;;
59416;SDS011;45222;52.458;20.914;2023-09-08T06:51:00;13.90;;;8.10;;
59416;SDS011;45222;52.458;20.914;2023-09-08T06:54:45;20.20;;;9.90;;
59416;SDS011;45222;52.458;20.914;2023-09-08T06:58:30;14.10;;;9.30;;
59416;SDS011;45222;52.458;20.914;2023-09-08T07:02:15;14.20;;;9.50;;
59416;SDS011;45222;52.458;20.914;2023-09-08T07:06:00;17.50;;;9.70;;
59416;SDS011;45222;52.458;20.914;2023-09-08T07:09:46;17.70;;;8.10;;
59416;SDS011;45222;52.458;20.914;2023-09-08T07:13:31;14.70;;;9.10;;
59416;SDS011;45222;52.458;20.914;2023-09-08T07:17:16;15.20;;;8.40;;
59416;SDS011;45222;52.458;20.914;2023-09-08T07:21:02;14.00;;;8.70;;
59416;SDS011;45222;52.458;20.914;2023-09-08T07:24:47;14.30;;;8.60;;
59416;SDS011;45222;52.458;20.914;2023-09-08T07:28:32;14.00;;;8.30;;
59416;SDS011;45222;52.458;20.914;2023-09-08T07:32:18;11.90;;;8.20;;
59416;SDS011;45222;52.458;20.914;2023-09-08T07:36:06;16.80;;;8.50;;
59416;SDS011;45222;52.458;20.914;2023-09-08T07:39:52;11.60;;;7.90;;
59416;SDS011;45222;52.458;20.914;2023-09-08T07:43:38;13.80;;;8.30;;
59416;SDS011;45222;52.458;20.914;2023-09-08T07:47:24;13.60;;;8.20;;
59416;SDS011;45222;52.458;20.914;2023-09-08T07:51:09;14.40;;;8.40;;
59416;SDS011;45222;52.458;20.914;2023-09-08T07:54:54;13.20;;;8.10;;
59416;SDS011;45222;52.458;20.914;2023-09-08T07:58:39;131.50;;;14.70;;
59416;SDS011;45222;52.458;20.914;2023-09-08T08:02:24;14.50;;;8.10;;
59416;SDS011;45222;52.458;20.914;2023-09-08T08:06:09;18.20;;;8.70;;
59416;SDS011;45222;52.458;20.914;2023-09-08T08:09:54;13.00;;;8.00;;
59416;SDS011;45222;52.458;20.914;2023-09-08T08:13:39;29.90;;;8.00;;
59416;SDS011;45222;52.458;20.914;2023-09-08T08:17:24;13.10;;;7.60;;
59416;SDS011;45222;52.458;20.914;2023-09-08T08:21:11;13.50;;;7.90;;
59416;SDS011;45222;52.458;20.914;2023-09-08T08:24:56;11.80;;;7.80;;
59416;SDS011;45222;52.458;20.914;2023-09-08T08:28:41;15.00;;;8.20;;
59416;SDS011;45222;52.458;20.914;2023-09-08T08:32:26;14.50;;;7.80;;
59416;SDS011;45222;52.458;20.914;2023-09-08T08:36:12;12.70;;;8.00;;
59416;SDS011;45222;52.458;20.914;2023-09-08T08:39:57;15.60;;;7.50;;
59416;SDS011;45222;52.458;20.914;2023-09-08T08:43:42;12.10;;;7.90;;
59416;SDS011;45222;52.458;20.914;2023-09-08T08:47:28;11.70;;;7.20;;
59416;SDS011;45222;52.458;20.914;2023-09-08T08:51:13;14.60;;;8.00;;
59416;SDS011;45222;52.458;20.914;2023-09-08T08:55:01;10.60;;;7.10;;
59416;SDS011;45222;52.458;20.914;2023-09-08T08:58:48;12.20;;;7.00;;
59416;SDS011;45222;52.458;20.914;2023-09-08T09:02:33;13.00;;;7.30;;
59416;SDS011;45222;52.458;20.914;2023-09-08T09:06:19;12.30;;;7.00;;
59416;SDS011;45222;52.458;20.914;2023-09-08T09:10:06;11.00;;;7.00;;
59416;SDS011;45222;52.458;20.914;2023-09-08T09:13:52;12.80;;;7.30;;
59416;SDS011;45222;52.458;20.914;2023-09-08T09:17:37;10.60;;;6.60;;
59416;SDS011;45222;52.458;20.914;2023-09-08T09:21:23;10.80;;;6.00;;
59416;SDS011;45222;52.458;20.914;2023-09-08T09:25:13;9.80;;;6.30;;
59416;SDS011;45222;52.458;20.914;2023-09-08T09:29:06;9.40;;;5.90;;
59416;SDS011;45222;52.458;20.914;2023-09-08T09:33:00;24.00;;;7.20;;
59416;SDS011;45222;52.458;20.914;2023-09-08T09:36:47;11.10;;;7.00;;
59416;SDS011;45222;52.458;20.914;2023-09-08T09:40:33;22.20;;;7.00;;
59416;SDS011;45222;52.458;20.914;2023-09-08T09:44:18;11.10;;;6.10;;
59416;SDS011;45222;52.458;20.914;2023-09-08T09:48:06;12.50;;;6.20;;
59416;SDS011;45222;52.458;20.914;2023-09-08T09:51:55;15.30;;;5.80;;
59416;SDS011;45222;52.458;20.914;2023-09-08T09:55:42;11.30;;;5.90;;
59416;SDS011;45222;52.458;20.914;2023-09-08T09:59:28;11.00;;;6.50;;
59416;SDS011;45222;52.458;20.914;2023-09-08T10:03:17;11.50;;;6.40;;
59416;SDS011;45222;52.458;20.914;2023-09-08T10:07:04;14.10;;;6.50;;
59416;SDS011;45222;52.458;20.914;2023-09-08T10:10:50;12.70;;;6.10;;
59416;SDS011;45222;52.458;20.914;2023-09-08T10:14:35;11.30;;;5.80;;
59416;SDS011;45222;52.458;20.914;2023-09-08T10:18:24;8.60;;;5.50;;
59416;SDS011;45222;52.458;20.914;2023-09-08T10:22:11;12.90;;;6.30;;
59416;SDS011;45222;52.458;20.914;2023-09-08T10:25:59;11.70;;;6.10;;
59416;SDS011;45222;52.458;20.914;2023-09-08T10:29:49;11.40;;;5.90;;
59416;SDS011;45222;52.458;20.914;2023-09-08T10:33:35;7.10;;;5.00;;
59416;SDS011;45222;52.458;20.914;2023-09-08T10:37:21;85.30;;;7.80;;
59416;SDS011;45222;52.458;20.914;2023-09-08T10:41:27;8.90;;;5.00;;
59416;SDS011;45222;52.458;20.914;2023-09-08T10:45:16;9.60;;;4.80;;
59416;SDS011;45222;52.458;20.914;2023-09-08T10:49:02;7.00;;;4.60;;
59416;SDS011;45222;52.458;20.914;2023-09-08T10:53:04;10.20;;;5.10;;
59416;SDS011;45222;52.458;20.914;2023-09-08T10:56:54;11.00;;;5.20;;
59416;SDS011;45222;52.458;20.914;2023-09-08T11:00:43;9.50;;;5.40;;
59416;SDS011;45222;52.458;20.914;2023-09-08T11:04:30;10.10;;;5.50;;
59416;SDS011;45222;52.458;20.914;2023-09-08T11:08:15;9.00;;;5.20;;
59416;SDS011;45222;52.458;20.914;2023-09-08T11:12:03;9.90;;;5.10;;
59416;SDS011;45222;52.458;20.914;2023-09-08T11:15:51;8.50;;;4.60;;
59416;SDS011;45222;52.458;20.914;2023-09-08T11:19:44;8.00;;;4.60;;
59416;SDS011;45222;52.458;20.914;2023-09-08T11:23:31;8.30;;;4.80;;
59416;SDS011;45222;52.458;20.914;2023-09-08T11:27:16;8.70;;;5.10;;
59416;SDS011;45222;52.458;20.914;2023-09-08T11:31:01;8.40;;;4.90;;
59416;SDS011;45222;52.458;20.914;2023-09-08T11:34:47;7.30;;;4.70;;
59416;SDS011;45222;52.458;20.914;2023-09-08T11:38:32;8.60;;;4.60;;
59416;SDS011;45222;52.458;20.914;2023-09-08T11:42:17;8.60;;;4.60;;
59416;SDS011;45222;52.458;20.914;2023-09-08T11:46:04;10.00;;;4.50;;
59416;SDS011;45222;52.458;20.914;2023-09-08T11:49:52;16.90;;;5.10;;
59416;SDS011;45222;52.458;20.914;2023-09-08T11:53:37;10.30;;;4.70;;
59416;SDS011;45222;52.458;20.914;2023-09-08T11:57:23;11.10;;;5.40;;
59416;SDS011;45222;52.458;20.914;2023-09-08T12:01:09;9.10;;;4.70;;
59416;SDS011;45222;52.458;20.914;2023-09-08T12:04:55;8.70;;;4.40;;
59416;SDS011;45222;52.458;20.914;2023-09-08T12:08:40;8.60;;;4.90;;
59416;SDS011;45222;52.458;20.914;2023-09-08T12:12:29;9.20;;;4.90;;
59416;SDS011;45222;52.458;20.914;2023-09-08T12:16:18;8.00;;;4.70;;
59416;SDS011;45222;52.458;20.914;2023-09-08T12:20:13;8.40;;;4.50;;
59416;SDS011;45222;52.458;20.914;2023-09-08T12:23:59;8.00;;;4.70;;
59416;SDS011;45222;52.458;20.914;2023-09-08T12:27:44;9.50;;;4.60;;
59416;SDS011;45222;52.458;20.914;2023-09-08T12:31:33;9.00;;;4.90;;
59416;SDS011;45222;52.458;20.914;2023-09-08T12:35:22;8.80;;;4.60;;
59416;SDS011;45222;52.458;20.914;2023-09-08T12:39:09;9.20;;;4.40;;
59416;SDS011;45222;52.458;20.914;2023-09-08T12:42:55;9.30;;;4.40;;
59416;SDS011;45222;52.458;20.914;2023-09-08T12:50:26;7.50;;;4.50;;
59416;SDS011;45222;52.458;20.914;2023-09-08T12:54:11;9.00;;;4.80;;
59416;SDS011;45222;52.458;20.914;2023-09-08T12:57:56;68.00;;;7.30;;
59416;SDS011;45222;52.458;20.914;2023-09-08T13:01:41;9.60;;;4.50;;
59416;SDS011;45222;52.458;20.914;2023-09-08T13:05:26;67.80;;;7.70;;
59416;SDS011;45222;52.458;20.914;2023-09-08T13:09:13;15.90;;;4.80;;
59416;SDS011;45222;52.458;20.914;2023-09-08T13:12:59;9.00;;;4.40;;
59416;SDS011;45222;52.458;20.914;2023-09-08T13:16:45;7.30;;;4.40;;
59416;SDS011;45222;52.458;20.914;2023-09-08T13:20:31;10.60;;;4.30;;
59416;SDS011;45222;52.458;20.914;2023-09-08T13:24:16;8.00;;;4.30;;
59416;SDS011;45222;52.458;20.914;2023-09-08T13:28:01;10.70;;;4.90;;
59416;SDS011;45222;52.458;20.914;2023-09-08T13:31:46;7.80;;;4.10;;
59416;SDS011;45222;52.458;20.914;2023-09-08T13:35:34;9.50;;;4.20;;
59416;SDS011;45222;52.458;20.914;2023-09-08T13:39:19;6.30;;;4.00;;
59416;SDS011;45222;52.458;20.914;2023-09-08T13:43:04;8.70;;;4.20;;
59416;SDS011;45222;52.458;20.914;2023-09-08T13:46:50;7.60;;;3.80;;
59416;SDS011;45222;52.458;20.914;2023-09-08T13:50:37;9.80;;;4.80;;
59416;SDS011;45222;52.458;20.914;2023-09-08T13:54:24;8.80;;;4.30;;
59416;SDS011;45222;52.458;20.914;2023-09-08T13:58:09;9.00;;;4.20;;
59416;SDS011;45222;52.458;20.914;2023-09-08T14:01:55;7.60;;;4.30;;
59416;SDS011;45222;52.458;20.914;2023-09-08T14:09:26;16.60;;;4.90;;
59416;SDS011;45222;52.458;20.914;2023-09-08T14:13:12;8.10;;;4.30;;
59416;SDS011;45222;52.458;20.914;2023-09-08T14:16:57;7.50;;;4.20;;
59416;SDS011;45222;52.458;20.914;2023-09-08T14:20:43;7.30;;;4.40;;
59416;SDS011;45222;52.458;20.914;2023-09-08T14:24:29;11.30;;;4.60;;
59416;SDS011;45222;52.458;20.914;2023-09-08T14:28:14;7.30;;;4.00;;
59416;SDS011;45222;52.458;20.914;2023-09-08T14:31:59;7.30;;;4.40;;
59416;SDS011;45222;52.458;20.914;2023-09-08T14:35:44;330.60;;;21.10;;
59416;SDS011;45222;52.458;20.914;2023-09-08T14:39:34;43.50;;;7.40;;
59416;SDS011;45222;52.458;20.914;2023-09-08T14:43:19;8.20;;;4.20;;
59416;SDS011;45222;52.458;20.914;2023-09-08T14:47:05;8.80;;;4.00;;
59416;SDS011;45222;52.458;20.914;2023-09-08T14:50:50;7.30;;;4.00;;
59416;SDS011;45222;52.458;20.914;2023-09-08T14:54:35;7.60;;;4.20;;
59416;SDS011;45222;52.458;20.914;2023-09-08T14:58:20;9.60;;;4.70;;
59416;SDS011;45222;52.458;20.914;2023-09-08T15:02:05;8.80;;;4.40;;
59416;SDS011;45222;52.458;20.914;2023-09-08T15:05:51;68.30;;;8.10;;
59416;SDS011;45222;52.458;20.914;2023-09-08T15:09:36;7.20;;;4.40;;
59416;SDS011;45222;52.458;20.914;2023-09-08T15:13:24;10.80;;;4.30;;
59416;SDS011;45222;52.458;20.914;2023-09-08T15:17:17;13.20;;;4.20;;
59416;SDS011;45222;52.458;20.914;2023-09-08T15:21:03;7.30;;;4.00;;
59416;SDS011;45222;52.458;20.914;2023-09-08T15:24:49;12.90;;;4.70;;
59416;SDS011;45222;52.458;20.914;2023-09-08T15:28:34;24.00;;;4.60;;
59416;SDS011;45222;52.458;20.914;2023-09-08T15:32:19;12.70;;;4.70;;
59416;SDS011;45222;52.458;20.914;2023-09-08T15:36:05;9.70;;;3.90;;
59416;SDS011;45222;52.458;20.914;2023-09-08T15:39:51;8.20;;;4.20;;
59416;SDS011;45222;52.458;20.914;2023-09-08T15:43:37;7.70;;;4.00;;
59416;SDS011;45222;52.458;20.914;2023-09-08T15:47:23;8.10;;;4.00;;
59416;SDS011;45222;52.458;20.914;2023-09-08T15:51:09;7.70;;;4.10;;
59416;SDS011;45222;52.458;20.914;2023-09-08T15:54:54;10.80;;;4.50;;
59416;SDS011;45222;52.458;20.914;2023-09-08T15:58:41;7.90;;;4.50;;
59416;SDS011;45222;52.458;20.914;2023-09-08T16:02:27;14.30;;;4.50;;
59416;SDS011;45222;52.458;20.914;2023-09-08T16:06:14;11.10;;;4.60;;
59416;SDS011;45222;52.458;20.914;2023-09-08T16:10:05;30.40;;;5.30;;
59416;SDS011;45222;52.458;20.914;2023-09-08T16:13:51;10.80;;;4.30;;
59416;SDS011;45222;52.458;20.914;2023-09-08T16:17:37;8.30;;;4.60;;
59416;SDS011;45222;52.458;20.914;2023-09-08T16:21:22;62.80;;;7.00;;
59416;SDS011;45222;52.458;20.914;2023-09-08T16:25:08;8.90;;;4.20;;
59416;SDS011;45222;52.458;20.914;2023-09-08T16:28:54;21.20;;;6.30;;
59416;SDS011;45222;52.458;20.914;2023-09-08T16:32:39;14.40;;;6.10;;
59416;SDS011;45222;52.458;20.914;2023-09-08T16:36:24;26.80;;;6.20;;
59416;SDS011;45222;52.458;20.914;2023-09-08T16:40:10;12.80;;;5.60;;
59416;SDS011;45222;52.458;20.914;2023-09-08T16:43:55;19.70;;;6.00;;
59416;SDS011;45222;52.458;20.914;2023-09-08T16:47:41;13.20;;;5.80;;
59416;SDS011;45222;52.458;20.914;2023-09-08T16:51:26;88.80;;;10.00;;
59416;SDS011;45222;52.458;20.914;2023-09-08T16:55:12;29.70;;;6.80;;
59416;SDS011;45222;52.458;20.914;2023-09-08T16:59:05;9.10;;;5.40;;
59416;SDS011;45222;52.458;20.914;2023-09-08T17:02:50;10.50;;;5.80;;
59416;SDS011;45222;52.458;20.914;2023-09-08T17:06:36;10.50;;;5.90;;
59416;SDS011;45222;52.458;20.914;2023-09-08T17:10:21;10.70;;;6.20;;
59416;SDS011;45222;52.458;20.914;2023-09-08T17:14:06;11.40;;;5.90;;
59416;SDS011;45222;52.458;20.914;2023-09-08T17:17:52;21.30;;;6.90;;
59416;SDS011;45222;52.458;20.914;2023-09-08T17:21:37;75.20;;;9.50;;
59416;SDS011;45222;52.458;20.914;2023-09-08T17:25:22;29.00;;;7.80;;
59416;SDS011;45222;52.458;20.914;2023-09-08T17:29:09;71.50;;;9.60;;
59416;SDS011;45222;52.458;20.914;2023-09-08T17:32:54;72.10;;;8.80;;
59416;SDS011;45222;52.458;20.914;2023-09-08T17:36:39;22.80;;;7.50;;
59416;SDS011;45222;52.458;20.914;2023-09-08T17:40:25;94.40;;;10.60;;
59416;SDS011;45222;52.458;20.914;2023-09-08T17:44:11;49.30;;;9.30;;
59416;SDS011;45222;52.458;20.914;2023-09-08T17:47:56;278.50;;;19.60;;
59416;SDS011;45222;52.458;20.914;2023-09-08T17:51:41;75.30;;;11.40;;
59416;SDS011;45222;52.458;20.914;2023-09-08T17:55:26;69.00;;;10.00;;
59416;SDS011;45222;52.458;20.914;2023-09-08T17:59:12;164.30;;;12.80;;
59416;SDS011;45222;52.458;20.914;2023-09-08T18:02:57;180.50;;;14.90;;
59416;SDS011;45222;52.458;20.914;2023-09-08T18:06:42;346.40;;;23.50;;
59416;SDS011;45222;52.458;20.914;2023-09-08T18:10:29;159.80;;;15.80;;
59416;SDS011;45222;52.458;20.914;2023-09-08T18:14:16;120.80;;;13.80;;
59416;SDS011;45222;52.458;20.914;2023-09-08T18:18:02;96.80;;;12.60;;
59416;SDS011;45222;52.458;20.914;2023-09-08T18:21:47;42.40;;;10.00;;
59416;SDS011;45222;52.458;20.914;2023-09-08T18:25:33;46.90;;;9.10;;
59416;SDS011;45222;52.458;20.914;2023-09-08T18:29:20;43.10;;;9.60;;
59416;SDS011;45222;52.458;20.914;2023-09-08T18:33:06;56.60;;;10.00;;
59416;SDS011;45222;52.458;20.914;2023-09-08T18:36:51;42.80;;;9.60;;
59416;SDS011;45222;52.458;20.914;2023-09-08T18:40:36;43.40;;;9.70;;
59416;SDS011;45222;52.458;20.914;2023-09-08T18:44:28;43.10;;;9.70;;
59416;SDS011;45222;52.458;20.914;2023-09-08T18:48:13;43.90;;;9.50;;
59416;SDS011;45222;52.458;20.914;2023-09-08T18:52:00;203.20;;;17.90;;
59416;SDS011;45222;52.458;20.914;2023-09-08T18:55:46;142.00;;;16.00;;
59416;SDS011;45222;52.458;20.914;2023-09-08T18:59:31;86.30;;;12.90;;
59416;SDS011;45222;52.458;20.914;2023-09-08T19:03:16;32.90;;;10.80;;
59416;SDS011;45222;52.458;20.914;2023-09-08T19:07:03;29.60;;;10.60;;
59416;SDS011;45222;52.458;20.914;2023-09-08T19:10:48;29.00;;;10.30;;
59416;SDS011;45222;52.458;20.914;2023-09-08T19:14:34;23.90;;;9.30;;
59416;SDS011;45222;52.458;20.914;2023-09-08T19:18:20;22.80;;;10.00;;
59416;SDS011;45222;52.458;20.914;2023-09-08T19:22:06;271.40;;;21.20;;
59416;SDS011;45222;52.458;20.914;2023-09-08T19:25:51;39.60;;;12.10;;
59416;SDS011;45222;52.458;20.914;2023-09-08T19:29:55;29.50;;;12.10;;
59416;SDS011;45222;52.458;20.914;2023-09-08T19:33:41;31.00;;;11.70;;
59416;SDS011;45222;52.458;20.914;2023-09-08T19:37:26;32.00;;;11.90;;
59416;SDS011;45222;52.458;20.914;2023-09-08T19:41:11;19.30;;;10.20;;
59416;SDS011;45222;52.458;20.914;2023-09-08T19:44:57;18.00;;;9.80;;
59416;SDS011;45222;52.458;20.914;2023-09-08T19:48:42;14.90;;;10.00;;
59416;SDS011;45222;52.458;20.914;2023-09-08T19:52:27;21.20;;;10.80;;
59416;SDS011;45222;52.458;20.914;2023-09-08T19:56:13;17.70;;;9.50;;
59416;SDS011;45222;52.458;20.914;2023-09-08T19:59:59;14.40;;;8.70;;
59416;SDS011;45222;52.458;20.914;2023-09-08T20:03:49;15.50;;;9.90;;
59416;SDS011;45222;52.458;20.914;2023-09-08T20:07:38;19.00;;;10.20;;
59416;SDS011;45222;52.458;20.914;2023-09-08T20:11:24;41.30;;;12.00;;
59416;SDS011;45222;52.458;20.914;2023-09-08T20:15:10;133.60;;;14.80;;
59416;SDS011;45222;52.458;20.914;2023-09-08T20:18:57;27.20;;;9.70;;
59416;SDS011;45222;52.458;20.914;2023-09-08T20:22:43;28.70;;;10.00;;
59416;SDS011;45222;52.458;20.914;2023-09-08T20:26:28;262.60;;;23.80;;
59416;SDS011;45222;52.458;20.914;2023-09-08T20:30:13;32.50;;;14.30;;
59416;SDS011;45222;52.458;20.914;2023-09-08T20:33:58;41.30;;;15.50;;
59416;SDS011;45222;52.458;20.914;2023-09-08T20:37:43;38.60;;;14.00;;
59416;SDS011;45222;52.458;20.914;2023-09-08T20:41:29;33.50;;;13.60;;
59416;SDS011;45222;52.458;20.914;2023-09-08T20:45:16;30.70;;;13.20;;
59416;SDS011;45222;52.458;20.914;2023-09-08T20:49:01;31.30;;;12.90;;
59416;SDS011;45222;52.458;20.914;2023-09-08T20:52:46;20.90;;;13.30;;
59416;SDS011;45222;52.458;20.914;2023-09-08T20:56:32;22.60;;;14.00;;
59416;SDS011;45222;52.458;20.914;2023-09-08T21:00:17;22.20;;;13.00;;
59416;SDS011;45222;52.458;20.914;2023-09-08T21:04:03;23.70;;;14.20;;
59416;SDS011;45222;52.458;20.914;2023-09-08T21:07:50;30.30;;;16.50;;
59416;SDS011;45222;52.458;20.914;2023-09-08T21:11:36;33.10;;;18.00;;
59416;SDS011;45222;52.458;20.914;2023-09-08T21:15:22;30.00;;;15.60;;
59416;SDS011;45222;52.458;20.914;2023-09-08T21:19:08;28.30;;;15.10;;
59416;SDS011;45222;52.458;20.914;2023-09-08T21:22:53;27.20;;;16.00;;
59416;SDS011;45222;52.458;20.914;2023-09-08T21:26:39;26.30;;;15.00;;
59416;SDS011;45222;52.458;20.914;2023-09-08T21:30:24;46.00;;;15.60;;
59416;SDS011;45222;52.458;20.914;2023-09-08T21:34:10;39.60;;;18.80;;
59416;SDS011;45222;52.458;20.914;2023-09-08T21:37:57;32.90;;;16.30;;
59416;SDS011;45222;52.458;20.914;2023-09-08T21:41:43;32.10;;;17.20;;
59416;SDS011;45222;52.458;20.914;2023-09-08T21:45:28;30.60;;;16.90;;
59416;SDS011;45222;52.458;20.914;2023-09-08T21:49:14;30.40;;;17.60;;
59416;SDS011;45222;52.458;20.914;2023-09-08T21:52:59;26.20;;;15.90;;
59416;SDS011;45222;52.458;20.914;2023-09-08T21:56:45;25.60;;;15.20;;
59416;SDS011;45222;52.458;20.914;2023-09-08T22:00:32;21.60;;;13.80;;
59416;SDS011;45222;52.458;20.914;2023-09-08T22:04:18;26.20;;;15.40;;
59416;SDS011;45222;52.458;20.914;2023-09-08T22:08:04;25.80;;;15.40;;